sensor_id;sensor_type;location;lat;lon;timestamp;P1;durP1;ratioP1;P2;durP2;ratioP2
10353;SDS011;5223;50.924;13.338;2022-07-21T00:01:29;1.52;;;1.48;;
10353;SDS011;5223;50.924;13.338;2022-07-21T00:04:09;1.23;;;1.23;;
10353;SDS011;5223;50.924;13.338;2022-07-21T00:06:45;0.98;;;0.98;;
10353;SDS011;5223;50.924;13.338;2022-07-21T00:09:28;0.98;;;0.98;;
10353;SDS011;5223;50.924;13.338;2022-07-21T00:12:23;3.28;;;1.80;;
10353;SDS011;5223;50.924;13.338;2022-07-21T00:15:07;1.42;;;1.33;;
10353;SDS011;5223;50.924;13.338;2022-07-21T00:17:50;1.10;;;1.10;;
10353;SDS011;5223;50.924;13.338;2022-07-21T00:20:38;1.00;;;1.00;;
10353;SDS011;5223;50.924;13.338;2022-07-21T00:23:23;1.00;;;1.00;;
10353;SDS011;5223;50.924;13.338;2022-07-21T00:26:08;1.30;;;1.30;;
10353;SDS011;5223;50.924;13.338;2022-07-21T00:28:42;0.90;;;0.90;;
10353;SDS011;5223;50.924;13.338;2022-07-21T00:31:25;1.00;;;1.00;;
10353;SDS011;5223;50.924;13.338;2022-07-21T00:33:58;2.88;;;1.88;;
10353;SDS011;5223;50.924;13.338;2022-07-21T00:36:49;1.33;;;1.27;;
10353;SDS011;5223;50.924;13.338;2022-07-21T00:39:35;1.45;;;1.45;;
10353;SDS011;5223;50.924;13.338;2022-07-21T00:42:27;2.75;;;1.77;;
10353;SDS011;5223;50.924;13.338;2022-07-21T00:45:14;1.85;;;1.75;;
10353;SDS011;5223;50.924;13.338;2022-07-21T00:47:52;1.20;;;1.20;;
10353;SDS011;5223;50.924;13.338;2022-07-21T00:50:29;1.67;;;1.58;;
10353;SDS011;5223;50.924;13.338;2022-07-21T00:53:20;1.67;;;1.58;;
10353;SDS011;5223;50.924;13.338;2022-07-21T00:56:08;3.17;;;1.48;;
10353;SDS011;5223;50.924;13.338;2022-07-21T00:58:51;1.63;;;1.52;;
10353;SDS011;5223;50.924;13.338;2022-07-21T01:01:37;1.30;;;1.30;;
10353;SDS011;5223;50.924;13.338;2022-07-21T01:04:27;1.52;;;1.42;;
10353;SDS011;5223;50.924;13.338;2022-07-21T01:07:06;1.33;;;1.33;;
10353;SDS011;5223;50.924;13.338;2022-07-21T01:16:10;0.90;;;0.90;;
10353;SDS011;5223;50.924;13.338;2022-07-21T01:18:50;1.20;;;1.20;;
10353;SDS011;5223;50.924;13.338;2022-07-21T01:22:10;1.90;;;1.80;;
10353;SDS011;5223;50.924;13.338;2022-07-21T01:24:42;1.00;;;1.00;;
10353;SDS011;5223;50.924;13.338;2022-07-21T01:27:36;0.90;;;0.90;;
10353;SDS011;5223;50.924;13.338;2022-07-21T01:30:18;1.50;;;1.40;;
10353;SDS011;5223;50.924;13.338;2022-07-21T01:32:54;1.08;;;1.08;;
10353;SDS011;5223;50.924;13.338;2022-07-21T01:35:44;1.10;;;1.10;;
10353;SDS011;5223;50.924;13.338;2022-07-21T01:38:41;1.00;;;1.00;;
10353;SDS011;5223;50.924;13.338;2022-07-21T01:41:28;2.30;;;2.10;;
10353;SDS011;5223;50.924;13.338;2022-07-21T01:44:23;2.38;;;2.03;;
10353;SDS011;5223;50.924;13.338;2022-07-21T01:47:12;1.42;;;1.42;;
10353;SDS011;5223;50.924;13.338;2022-07-21T01:49:55;1.73;;;1.63;;
10353;SDS011;5223;50.924;13.338;2022-07-21T01:52:37;1.83;;;1.73;;
10353;SDS011;5223;50.924;13.338;2022-07-21T01:58:37;3.15;;;2.72;;
10353;SDS011;5223;50.924;13.338;2022-07-21T02:01:14;2.28;;;2.15;;
10353;SDS011;5223;50.924;13.338;2022-07-21T02:03:55;15.73;;;4.60;;
10353;SDS011;5223;50.924;13.338;2022-07-21T02:06:47;4.30;;;3.00;;
10353;SDS011;5223;50.924;13.338;2022-07-21T02:09:27;1.40;;;1.40;;
10353;SDS011;5223;50.924;13.338;2022-07-21T02:12:19;2.00;;;1.90;;
10353;SDS011;5223;50.924;13.338;2022-07-21T02:15:19;2.47;;;2.28;;
10353;SDS011;5223;50.924;13.338;2022-07-21T02:18:09;2.72;;;2.47;;
10353;SDS011;5223;50.924;13.338;2022-07-21T02:20:40;38.20;;;3.08;;
10353;SDS011;5223;50.924;13.338;2022-07-21T02:23:30;3.22;;;2.90;;
10353;SDS011;5223;50.924;13.338;2022-07-21T02:26:09;1.70;;;1.67;;
10353;SDS011;5223;50.924;13.338;2022-07-21T02:29:02;1.30;;;1.30;;
10353;SDS011;5223;50.924;13.338;2022-07-21T02:31:55;1.58;;;1.48;;
10353;SDS011;5223;50.924;13.338;2022-07-21T02:34:45;3.15;;;2.90;;
10353;SDS011;5223;50.924;13.338;2022-07-21T02:37:27;2.00;;;1.90;;
10353;SDS011;5223;50.924;13.338;2022-07-21T02:40:10;1.98;;;1.85;;
10353;SDS011;5223;50.924;13.338;2022-07-21T02:42:48;2.63;;;2.50;;
10353;SDS011;5223;50.924;13.338;2022-07-21T02:45:47;3.42;;;2.63;;
10353;SDS011;5223;50.924;13.338;2022-07-21T02:48:35;2.13;;;1.98;;
10353;SDS011;5223;50.924;13.338;2022-07-21T02:51:26;3.00;;;1.65;;
10353;SDS011;5223;50.924;13.338;2022-07-21T02:54:14;2.13;;;2.03;;
10353;SDS011;5223;50.924;13.338;2022-07-21T02:57:10;1.98;;;1.88;;
10353;SDS011;5223;50.924;13.338;2022-07-21T02:59:50;2.72;;;2.55;;
10353;SDS011;5223;50.924;13.338;2022-07-21T03:02:38;5.18;;;2.75;;
10353;SDS011;5223;50.924;13.338;2022-07-21T03:05:18;0.80;;;0.80;;
10353;SDS011;5223;50.924;13.338;2022-07-21T03:08:04;1.65;;;1.45;;
10353;SDS011;5223;50.924;13.338;2022-07-21T03:10:56;0.90;;;0.90;;
10353;SDS011;5223;50.924;13.338;2022-07-21T03:13:37;1.00;;;1.00;;
10353;SDS011;5223;50.924;13.338;2022-07-21T03:16:14;0.90;;;0.90;;
10353;SDS011;5223;50.924;13.338;2022-07-21T03:24:40;0.68;;;0.68;;
10353;SDS011;5223;50.924;13.338;2022-07-21T03:27:28;1.58;;;1.45;;
10353;SDS011;5223;50.924;13.338;2022-07-21T03:30:18;1.00;;;1.00;;
10353;SDS011;5223;50.924;13.338;2022-07-21T03:32:58;1.42;;;1.38;;
10353;SDS011;5223;50.924;13.338;2022-07-21T03:35:43;2.08;;;1.98;;
10353;SDS011;5223;50.924;13.338;2022-07-21T03:41:55;0.80;;;0.80;;
10353;SDS011;5223;50.924;13.338;2022-07-21T03:44:35;1.10;;;1.10;;
10353;SDS011;5223;50.924;13.338;2022-07-21T03:47:09;2.30;;;1.55;;
10353;SDS011;5223;50.924;13.338;2022-07-21T03:49:36;0.90;;;0.90;;
10353;SDS011;5223;50.924;13.338;2022-07-21T03:52:03;1.00;;;1.00;;
10353;SDS011;5223;50.924;13.338;2022-07-21T03:54:30;0.90;;;0.90;;
10353;SDS011;5223;50.924;13.338;2022-07-21T03:57:00;0.90;;;0.90;;
10353;SDS011;5223;50.924;13.338;2022-07-21T03:59:27;4.07;;;2.17;;
10353;SDS011;5223;50.924;13.338;2022-07-21T04:01:54;1.65;;;1.65;;
10353;SDS011;5223;50.924;13.338;2022-07-21T04:04:21;1.23;;;1.23;;
10353;SDS011;5223;50.924;13.338;2022-07-21T04:06:48;1.20;;;1.20;;
10353;SDS011;5223;50.924;13.338;2022-07-21T04:09:15;2.15;;;2.05;;
10353;SDS011;5223;50.924;13.338;2022-07-21T04:11:42;1.20;;;1.20;;
10353;SDS011;5223;50.924;13.338;2022-07-21T04:14:10;1.63;;;1.52;;
10353;SDS011;5223;50.924;13.338;2022-07-21T04:16:37;1.50;;;1.40;;
10353;SDS011;5223;50.924;13.338;2022-07-21T04:19:04;1.20;;;1.20;;
10353;SDS011;5223;50.924;13.338;2022-07-21T04:21:31;2.13;;;1.95;;
10353;SDS011;5223;50.924;13.338;2022-07-21T04:23:58;1.00;;;1.00;;
10353;SDS011;5223;50.924;13.338;2022-07-21T04:26:25;1.30;;;1.30;;
10353;SDS011;5223;50.924;13.338;2022-07-21T04:28:52;1.00;;;1.00;;
10353;SDS011;5223;50.924;13.338;2022-07-21T04:31:21;1.00;;;1.00;;
10353;SDS011;5223;50.924;13.338;2022-07-21T04:33:48;2.13;;;1.58;;
10353;SDS011;5223;50.924;13.338;2022-07-21T04:36:15;1.50;;;1.40;;
10353;SDS011;5223;50.924;13.338;2022-07-21T04:38:47;0.90;;;0.90;;
10353;SDS011;5223;50.924;13.338;2022-07-21T04:41:14;1.00;;;1.00;;
10353;SDS011;5223;50.924;13.338;2022-07-21T04:43:41;1.00;;;1.00;;
10353;SDS011;5223;50.924;13.338;2022-07-21T04:46:08;1.10;;;1.10;;
10353;SDS011;5223;50.924;13.338;2022-07-21T04:48:40;1.00;;;1.00;;
10353;SDS011;5223;50.924;13.338;2022-07-21T04:51:07;1.00;;;1.00;;
10353;SDS011;5223;50.924;13.338;2022-07-21T04:53:33;1.00;;;1.00;;
10353;SDS011;5223;50.924;13.338;2022-07-21T04:56:00;1.05;;;1.05;;
10353;SDS011;5223;50.924;13.338;2022-07-21T04:58:27;0.98;;;0.98;;
10353;SDS011;5223;50.924;13.338;2022-07-21T05:00:54;0.98;;;0.98;;
10353;SDS011;5223;50.924;13.338;2022-07-21T05:03:21;0.95;;;0.95;;
10353;SDS011;5223;50.924;13.338;2022-07-21T05:05:49;0.90;;;0.90;;
10353;SDS011;5223;50.924;13.338;2022-07-21T05:08:16;1.35;;;1.35;;
10353;SDS011;5223;50.924;13.338;2022-07-21T05:10:43;1.00;;;1.00;;
10353;SDS011;5223;50.924;13.338;2022-07-21T05:13:09;1.00;;;1.00;;
10353;SDS011;5223;50.924;13.338;2022-07-21T05:15:36;1.00;;;1.00;;
10353;SDS011;5223;50.924;13.338;2022-07-21T05:18:05;1.15;;;1.15;;
10353;SDS011;5223;50.924;13.338;2022-07-21T05:20:33;0.95;;;0.95;;
10353;SDS011;5223;50.924;13.338;2022-07-21T05:23:02;1.75;;;1.65;;
10353;SDS011;5223;50.924;13.338;2022-07-21T05:25:29;1.42;;;1.42;;
10353;SDS011;5223;50.924;13.338;2022-07-21T05:28:00;1.00;;;1.00;;
10353;SDS011;5223;50.924;13.338;2022-07-21T05:30:28;1.10;;;1.10;;
10353;SDS011;5223;50.924;13.338;2022-07-21T05:32:54;1.55;;;1.55;;
10353;SDS011;5223;50.924;13.338;2022-07-21T05:35:21;1.85;;;1.75;;
10353;SDS011;5223;50.924;13.338;2022-07-21T05:37:48;1.00;;;1.00;;
10353;SDS011;5223;50.924;13.338;2022-07-21T05:40:17;1.13;;;1.13;;
10353;SDS011;5223;50.924;13.338;2022-07-21T05:42:44;1.00;;;1.00;;
10353;SDS011;5223;50.924;13.338;2022-07-21T05:45:11;1.00;;;1.00;;
10353;SDS011;5223;50.924;13.338;2022-07-21T05:47:38;1.33;;;1.30;;
10353;SDS011;5223;50.924;13.338;2022-07-21T05:50:06;1.13;;;1.13;;
10353;SDS011;5223;50.924;13.338;2022-07-21T05:52:34;0.80;;;0.80;;
10353;SDS011;5223;50.924;13.338;2022-07-21T05:55:00;1.67;;;1.58;;
10353;SDS011;5223;50.924;13.338;2022-07-21T05:57:29;0.85;;;0.85;;
10353;SDS011;5223;50.924;13.338;2022-07-21T05:59:56;1.02;;;1.02;;
10353;SDS011;5223;50.924;13.338;2022-07-21T06:02:23;1.10;;;1.10;;
10353;SDS011;5223;50.924;13.338;2022-07-21T06:04:50;0.90;;;0.90;;
10353;SDS011;5223;50.924;13.338;2022-07-21T06:07:17;1.40;;;1.40;;
10353;SDS011;5223;50.924;13.338;2022-07-21T06:09:44;0.80;;;0.80;;
10353;SDS011;5223;50.924;13.338;2022-07-21T06:12:11;0.90;;;0.90;;
10353;SDS011;5223;50.924;13.338;2022-07-21T06:14:40;0.90;;;0.90;;
10353;SDS011;5223;50.924;13.338;2022-07-21T06:17:06;0.90;;;0.90;;
10353;SDS011;5223;50.924;13.338;2022-07-21T06:19:33;0.95;;;0.95;;
10353;SDS011;5223;50.924;13.338;2022-07-21T06:22:00;0.90;;;0.90;;
10353;SDS011;5223;50.924;13.338;2022-07-21T06:24:28;1.00;;;1.00;;
10353;SDS011;5223;50.924;13.338;2022-07-21T06:26:55;0.90;;;0.90;;
10353;SDS011;5223;50.924;13.338;2022-07-21T06:29:22;1.23;;;1.23;;
10353;SDS011;5223;50.924;13.338;2022-07-21T06:31:50;1.00;;;1.00;;
10353;SDS011;5223;50.924;13.338;2022-07-21T06:34:17;1.00;;;1.00;;
10353;SDS011;5223;50.924;13.338;2022-07-21T06:36:44;1.10;;;1.10;;
10353;SDS011;5223;50.924;13.338;2022-07-21T06:39:11;0.90;;;0.90;;
10353;SDS011;5223;50.924;13.338;2022-07-21T06:41:38;0.95;;;0.95;;
10353;SDS011;5223;50.924;13.338;2022-07-21T06:44:06;1.00;;;1.00;;
10353;SDS011;5223;50.924;13.338;2022-07-21T06:46:33;1.27;;;1.27;;
10353;SDS011;5223;50.924;13.338;2022-07-21T06:49:01;1.15;;;1.15;;
10353;SDS011;5223;50.924;13.338;2022-07-21T06:51:29;0.80;;;0.80;;
10353;SDS011;5223;50.924;13.338;2022-07-21T06:53:56;0.95;;;0.95;;
10353;SDS011;5223;50.924;13.338;2022-07-21T06:56:22;1.52;;;1.50;;
10353;SDS011;5223;50.924;13.338;2022-07-21T06:58:49;1.00;;;1.00;;
10353;SDS011;5223;50.924;13.338;2022-07-21T07:01:16;1.00;;;1.00;;
10353;SDS011;5223;50.924;13.338;2022-07-21T07:03:43;1.30;;;1.20;;
10353;SDS011;5223;50.924;13.338;2022-07-21T07:06:12;1.88;;;1.77;;
10353;SDS011;5223;50.924;13.338;2022-07-21T07:08:39;1.83;;;1.73;;
10353;SDS011;5223;50.924;13.338;2022-07-21T07:11:06;1.30;;;1.30;;
10353;SDS011;5223;50.924;13.338;2022-07-21T07:13:33;0.90;;;0.90;;
10353;SDS011;5223;50.924;13.338;2022-07-21T07:15:59;19.05;;;10.88;;
10353;SDS011;5223;50.924;13.338;2022-07-21T07:18:26;0.80;;;0.80;;
10353;SDS011;5223;50.924;13.338;2022-07-21T07:20:53;0.90;;;0.90;;
10353;SDS011;5223;50.924;13.338;2022-07-21T07:23:21;0.90;;;0.90;;
10353;SDS011;5223;50.924;13.338;2022-07-21T07:25:48;1.63;;;1.55;;
10353;SDS011;5223;50.924;13.338;2022-07-21T07:28:15;3.92;;;1.50;;
10353;SDS011;5223;50.924;13.338;2022-07-21T07:30:42;1.52;;;1.42;;
10353;SDS011;5223;50.924;13.338;2022-07-21T07:33:09;1.55;;;1.55;;
10353;SDS011;5223;50.924;13.338;2022-07-21T07:35:36;1.20;;;1.15;;
10353;SDS011;5223;50.924;13.338;2022-07-21T07:38:03;1.10;;;1.10;;
10353;SDS011;5223;50.924;13.338;2022-07-21T07:40:31;1.33;;;1.33;;
10353;SDS011;5223;50.924;13.338;2022-07-21T07:42:58;2.67;;;1.88;;
10353;SDS011;5223;50.924;13.338;2022-07-21T07:45:25;0.80;;;0.80;;
10353;SDS011;5223;50.924;13.338;2022-07-21T07:47:52;1.73;;;1.70;;
10353;SDS011;5223;50.924;13.338;2022-07-21T07:50:19;1.20;;;1.20;;
10353;SDS011;5223;50.924;13.338;2022-07-21T07:52:46;0.80;;;0.80;;
10353;SDS011;5223;50.924;13.338;2022-07-21T07:55:13;0.90;;;0.90;;
10353;SDS011;5223;50.924;13.338;2022-07-21T07:57:44;1.10;;;1.10;;
10353;SDS011;5223;50.924;13.338;2022-07-21T08:00:12;0.90;;;0.90;;
10353;SDS011;5223;50.924;13.338;2022-07-21T08:02:41;2.35;;;2.17;;
10353;SDS011;5223;50.924;13.338;2022-07-21T08:05:12;1.27;;;1.27;;
10353;SDS011;5223;50.924;13.338;2022-07-21T08:07:40;3.00;;;1.85;;
10353;SDS011;5223;50.924;13.338;2022-07-21T08:10:07;1.40;;;1.40;;
10353;SDS011;5223;50.924;13.338;2022-07-21T08:12:37;1.20;;;1.20;;
10353;SDS011;5223;50.924;13.338;2022-07-21T08:15:07;2.15;;;2.05;;
10353;SDS011;5223;50.924;13.338;2022-07-21T08:17:36;1.05;;;1.05;;
10353;SDS011;5223;50.924;13.338;2022-07-21T08:20:03;1.60;;;1.50;;
10353;SDS011;5223;50.924;13.338;2022-07-21T08:22:31;1.85;;;1.75;;
10353;SDS011;5223;50.924;13.338;2022-07-21T08:24:58;2.22;;;2.13;;
10353;SDS011;5223;50.924;13.338;2022-07-21T08:27:25;1.05;;;1.05;;
10353;SDS011;5223;50.924;13.338;2022-07-21T08:29:51;1.45;;;1.42;;
10353;SDS011;5223;50.924;13.338;2022-07-21T08:32:20;0.85;;;0.85;;
10353;SDS011;5223;50.924;13.338;2022-07-21T08:34:47;1.02;;;1.02;;
10353;SDS011;5223;50.924;13.338;2022-07-21T08:37:15;1.75;;;1.65;;
10353;SDS011;5223;50.924;13.338;2022-07-21T08:39:45;2.38;;;2.28;;
10353;SDS011;5223;50.924;13.338;2022-07-21T08:42:15;2.47;;;2.08;;
10353;SDS011;5223;50.924;13.338;2022-07-21T08:44:46;2.10;;;1.95;;
10353;SDS011;5223;50.924;13.338;2022-07-21T08:47:16;1.40;;;1.40;;
10353;SDS011;5223;50.924;13.338;2022-07-21T08:49:44;0.82;;;0.82;;
10353;SDS011;5223;50.924;13.338;2022-07-21T08:52:12;0.90;;;0.90;;
10353;SDS011;5223;50.924;13.338;2022-07-21T08:54:39;1.20;;;1.20;;
10353;SDS011;5223;50.924;13.338;2022-07-21T08:57:06;1.90;;;1.80;;
10353;SDS011;5223;50.924;13.338;2022-07-21T08:59:33;2.22;;;1.20;;
10353;SDS011;5223;50.924;13.338;2022-07-21T09:02:00;1.25;;;1.25;;
10353;SDS011;5223;50.924;13.338;2022-07-21T09:04:27;2.08;;;1.98;;
10353;SDS011;5223;50.924;13.338;2022-07-21T09:06:58;2.10;;;2.00;;
10353;SDS011;5223;50.924;13.338;2022-07-21T09:09:26;1.38;;;1.38;;
10353;SDS011;5223;50.924;13.338;2022-07-21T09:11:54;1.05;;;1.05;;
10353;SDS011;5223;50.924;13.338;2022-07-21T09:14:23;0.95;;;0.95;;
10353;SDS011;5223;50.924;13.338;2022-07-21T09:16:51;1.58;;;1.58;;
10353;SDS011;5223;50.924;13.338;2022-07-21T09:19:20;2.30;;;2.20;;
10353;SDS011;5223;50.924;13.338;2022-07-21T09:21:49;2.10;;;1.80;;
10353;SDS011;5223;50.924;13.338;2022-07-21T09:24:19;1.33;;;1.33;;
10353;SDS011;5223;50.924;13.338;2022-07-21T09:26:58;5.22;;;2.38;;
10353;SDS011;5223;50.924;13.338;2022-07-21T09:29:34;1.38;;;1.30;;
10353;SDS011;5223;50.924;13.338;2022-07-21T09:32:19;1.30;;;1.30;;
10353;SDS011;5223;50.924;13.338;2022-07-21T09:34:48;2.50;;;2.30;;
10353;SDS011;5223;50.924;13.338;2022-07-21T09:37:19;1.00;;;1.00;;
10353;SDS011;5223;50.924;13.338;2022-07-21T09:39:50;2.08;;;1.90;;
10353;SDS011;5223;50.924;13.338;2022-07-21T09:42:22;2.35;;;1.52;;
10353;SDS011;5223;50.924;13.338;2022-07-21T09:44:52;2.30;;;2.10;;
10353;SDS011;5223;50.924;13.338;2022-07-21T09:47:20;1.70;;;1.60;;
10353;SDS011;5223;50.924;13.338;2022-07-21T09:49:48;2.20;;;2.00;;
10353;SDS011;5223;50.924;13.338;2022-07-21T09:52:19;8.38;;;7.75;;
10353;SDS011;5223;50.924;13.338;2022-07-21T09:54:50;1.42;;;1.25;;
10353;SDS011;5223;50.924;13.338;2022-07-21T09:57:17;1.65;;;1.35;;
10353;SDS011;5223;50.924;13.338;2022-07-21T09:59:46;1.13;;;1.13;;
10353;SDS011;5223;50.924;13.338;2022-07-21T10:02:16;1.30;;;1.20;;
10353;SDS011;5223;50.924;13.338;2022-07-21T10:04:50;1.23;;;1.23;;
10353;SDS011;5223;50.924;13.338;2022-07-21T10:07:24;2.15;;;1.95;;
10353;SDS011;5223;50.924;13.338;2022-07-21T10:09:53;1.30;;;1.30;;
10353;SDS011;5223;50.924;13.338;2022-07-21T10:12:21;1.92;;;1.83;;
10353;SDS011;5223;50.924;13.338;2022-07-21T10:14:54;2.28;;;1.75;;
10353;SDS011;5223;50.924;13.338;2022-07-21T10:17:23;2.78;;;2.33;;
10353;SDS011;5223;50.924;13.338;2022-07-21T10:19:53;2.85;;;2.65;;
10353;SDS011;5223;50.924;13.338;2022-07-21T10:22:31;1.50;;;1.38;;
10353;SDS011;5223;50.924;13.338;2022-07-21T10:25:08;1.92;;;1.83;;
10353;SDS011;5223;50.924;13.338;2022-07-21T10:27:35;1.55;;;1.45;;
10353;SDS011;5223;50.924;13.338;2022-07-21T10:30:03;1.50;;;1.38;;
10353;SDS011;5223;50.924;13.338;2022-07-21T10:32:32;1.10;;;1.10;;
10353;SDS011;5223;50.924;13.338;2022-07-21T10:35:01;1.45;;;1.42;;
10353;SDS011;5223;50.924;13.338;2022-07-21T10:37:45;1.05;;;1.05;;
10353;SDS011;5223;50.924;13.338;2022-07-21T10:49:08;5.07;;;1.92;;
10353;SDS011;5223;50.924;13.338;2022-07-21T10:51:36;2.20;;;1.98;;
10353;SDS011;5223;50.924;13.338;2022-07-21T10:54:17;3.20;;;2.90;;
10353;SDS011;5223;50.924;13.338;2022-07-21T10:56:47;2.20;;;1.95;;
10353;SDS011;5223;50.924;13.338;2022-07-21T10:59:15;1.00;;;1.00;;
10353;SDS011;5223;50.924;13.338;2022-07-21T11:01:42;1.92;;;1.83;;
10353;SDS011;5223;50.924;13.338;2022-07-21T11:04:09;2.90;;;2.70;;
10353;SDS011;5223;50.924;13.338;2022-07-21T11:06:38;1.30;;;1.20;;
10353;SDS011;5223;50.924;13.338;2022-07-21T11:09:08;3.60;;;3.15;;
10353;SDS011;5223;50.924;13.338;2022-07-21T11:11:37;1.67;;;1.58;;
10353;SDS011;5223;50.924;13.338;2022-07-21T11:14:08;1.42;;;1.40;;
10353;SDS011;5223;50.924;13.338;2022-07-21T11:19:41;1.80;;;1.80;;
10353;SDS011;5223;50.924;13.338;2022-07-21T11:22:13;2.10;;;2.00;;
10353;SDS011;5223;50.924;13.338;2022-07-21T11:24:43;2.35;;;2.25;;
10353;SDS011;5223;50.924;13.338;2022-07-21T11:27:15;2.15;;;2.00;;
10353;SDS011;5223;50.924;13.338;2022-07-21T11:29:47;1.80;;;1.80;;
10353;SDS011;5223;50.924;13.338;2022-07-21T11:32:15;2.53;;;2.42;;
10353;SDS011;5223;50.924;13.338;2022-07-21T11:34:45;2.60;;;2.50;;
10353;SDS011;5223;50.924;13.338;2022-07-21T11:37:15;3.00;;;2.90;;
10353;SDS011;5223;50.924;13.338;2022-07-21T11:39:43;1.83;;;1.80;;
10353;SDS011;5223;50.924;13.338;2022-07-21T11:42:12;1.75;;;1.75;;
10353;SDS011;5223;50.924;13.338;2022-07-21T11:44:47;2.00;;;1.90;;
10353;SDS011;5223;50.924;13.338;2022-07-21T11:47:15;8.93;;;8.43;;
10353;SDS011;5223;50.924;13.338;2022-07-21T11:49:44;1.85;;;1.75;;
10353;SDS011;5223;50.924;13.338;2022-07-21T11:52:12;2.90;;;2.70;;
10353;SDS011;5223;50.924;13.338;2022-07-21T11:54:43;1.30;;;1.30;;
10353;SDS011;5223;50.924;13.338;2022-07-21T11:57:17;1.52;;;1.52;;
10353;SDS011;5223;50.924;13.338;2022-07-21T11:59:48;1.02;;;1.02;;
10353;SDS011;5223;50.924;13.338;2022-07-21T12:02:18;1.30;;;1.30;;
10353;SDS011;5223;50.924;13.338;2022-07-21T12:04:46;1.80;;;1.70;;
10353;SDS011;5223;50.924;13.338;2022-07-21T12:07:18;1.25;;;1.25;;
10353;SDS011;5223;50.924;13.338;2022-07-21T12:09:48;6.47;;;4.13;;
10353;SDS011;5223;50.924;13.338;2022-07-21T12:12:27;4.80;;;1.70;;
10353;SDS011;5223;50.924;13.338;2022-07-21T12:15:13;1.70;;;1.60;;
10353;SDS011;5223;50.924;13.338;2022-07-21T12:17:42;1.50;;;1.50;;
10353;SDS011;5223;50.924;13.338;2022-07-21T12:20:11;1.70;;;1.60;;
10353;SDS011;5223;50.924;13.338;2022-07-21T12:22:40;1.50;;;1.50;;
10353;SDS011;5223;50.924;13.338;2022-07-21T12:25:11;2.92;;;2.72;;
10353;SDS011;5223;50.924;13.338;2022-07-21T12:27:42;1.60;;;1.50;;
10353;SDS011;5223;50.924;13.338;2022-07-21T12:33:04;1.25;;;1.25;;
10353;SDS011;5223;50.924;13.338;2022-07-21T12:35:37;1.27;;;1.27;;
10353;SDS011;5223;50.924;13.338;2022-07-21T12:38:06;1.00;;;1.00;;
10353;SDS011;5223;50.924;13.338;2022-07-21T12:40:38;1.92;;;1.73;;
10353;SDS011;5223;50.924;13.338;2022-07-21T12:43:08;1.30;;;1.30;;
10353;SDS011;5223;50.924;13.338;2022-07-21T12:45:49;0.90;;;0.90;;
10353;SDS011;5223;50.924;13.338;2022-07-21T12:48:22;3.00;;;2.22;;
10353;SDS011;5223;50.924;13.338;2022-07-21T12:51:04;2.78;;;2.58;;
10353;SDS011;5223;50.924;13.338;2022-07-21T12:53:43;2.75;;;2.55;;
10353;SDS011;5223;50.924;13.338;2022-07-21T12:56:14;1.17;;;1.17;;
10353;SDS011;5223;50.924;13.338;2022-07-21T12:58:43;1.08;;;1.08;;
10353;SDS011;5223;50.924;13.338;2022-07-21T13:01:14;1.88;;;1.77;;
10353;SDS011;5223;50.924;13.338;2022-07-21T13:03:41;2.20;;;2.10;;
10353;SDS011;5223;50.924;13.338;2022-07-21T13:06:09;2.60;;;2.50;;
10353;SDS011;5223;50.924;13.338;2022-07-21T13:08:39;3.05;;;2.90;;
10353;SDS011;5223;50.924;13.338;2022-07-21T13:11:07;3.90;;;3.80;;
10353;SDS011;5223;50.924;13.338;2022-07-21T13:13:36;5.75;;;5.45;;
10353;SDS011;5223;50.924;13.338;2022-07-21T13:16:10;5.18;;;4.95;;
10353;SDS011;5223;50.924;13.338;2022-07-21T13:18:51;6.15;;;5.93;;
10353;SDS011;5223;50.924;13.338;2022-07-21T13:21:28;5.80;;;5.60;;
10353;SDS011;5223;50.924;13.338;2022-07-21T13:24:01;5.93;;;5.72;;
10353;SDS011;5223;50.924;13.338;2022-07-21T13:26:39;5.97;;;5.78;;
10353;SDS011;5223;50.924;13.338;2022-07-21T13:29:11;5.63;;;5.43;;
10353;SDS011;5223;50.924;13.338;2022-07-21T13:31:44;5.10;;;4.90;;
10353;SDS011;5223;50.924;13.338;2022-07-21T13:34:12;4.75;;;4.45;;
10353;SDS011;5223;50.924;13.338;2022-07-21T13:36:47;4.47;;;4.28;;
10353;SDS011;5223;50.924;13.338;2022-07-21T13:39:19;3.88;;;3.67;;
10353;SDS011;5223;50.924;13.338;2022-07-21T13:41:56;3.30;;;3.20;;
10353;SDS011;5223;50.924;13.338;2022-07-21T13:44:29;3.05;;;2.72;;
10353;SDS011;5223;50.924;13.338;2022-07-21T13:47:11;4.22;;;4.03;;
10353;SDS011;5223;50.924;13.338;2022-07-21T13:49:40;4.32;;;4.15;;
10353;SDS011;5223;50.924;13.338;2022-07-21T13:52:21;12.93;;;12.32;;
10353;SDS011;5223;50.924;13.338;2022-07-21T13:54:53;15.07;;;14.48;;
10353;SDS011;5223;50.924;13.338;2022-07-21T13:57:25;17.77;;;16.98;;
10353;SDS011;5223;50.924;13.338;2022-07-21T14:00:09;14.95;;;14.25;;
10353;SDS011;5223;50.924;13.338;2022-07-21T14:02:46;11.70;;;11.20;;
10353;SDS011;5223;50.924;13.338;2022-07-21T14:05:21;10.93;;;10.50;;
10353;SDS011;5223;50.924;13.338;2022-07-21T14:07:56;12.60;;;11.73;;
10353;SDS011;5223;50.924;13.338;2022-07-21T14:10:29;9.90;;;9.50;;
10353;SDS011;5223;50.924;13.338;2022-07-21T14:13:10;11.40;;;10.90;;
10353;SDS011;5223;50.924;13.338;2022-07-21T14:15:39;10.73;;;10.23;;
10353;SDS011;5223;50.924;13.338;2022-07-21T14:18:16;9.40;;;9.05;;
10353;SDS011;5223;50.924;13.338;2022-07-21T14:20:43;10.43;;;10.02;;
10353;SDS011;5223;50.924;13.338;2022-07-21T14:23:17;13.15;;;12.60;;
10353;SDS011;5223;50.924;13.338;2022-07-21T14:25:53;12.88;;;12.02;;
10353;SDS011;5223;50.924;13.338;2022-07-21T14:28:25;11.90;;;11.40;;
10353;SDS011;5223;50.924;13.338;2022-07-21T14:30:56;12.13;;;11.63;;
10353;SDS011;5223;50.924;13.338;2022-07-21T14:33:36;11.82;;;11.32;;
10353;SDS011;5223;50.924;13.338;2022-07-21T14:36:18;13.35;;;12.75;;
10353;SDS011;5223;50.924;13.338;2022-07-21T14:38:53;12.70;;;12.20;;
10353;SDS011;5223;50.924;13.338;2022-07-21T14:41:27;12.00;;;11.50;;
10353;SDS011;5223;50.924;13.338;2022-07-21T14:44:05;13.60;;;13.00;;
10353;SDS011;5223;50.924;13.338;2022-07-21T14:46:37;12.88;;;12.38;;
10353;SDS011;5223;50.924;13.338;2022-07-21T14:49:17;14.32;;;13.73;;
10353;SDS011;5223;50.924;13.338;2022-07-21T14:51:52;12.40;;;11.90;;
10353;SDS011;5223;50.924;13.338;2022-07-21T14:54:22;13.20;;;12.68;;
10353;SDS011;5223;50.924;13.338;2022-07-21T14:56:52;12.00;;;11.40;;
10353;SDS011;5223;50.924;13.338;2022-07-21T14:59:26;14.52;;;13.82;;
10353;SDS011;5223;50.924;13.338;2022-07-21T15:01:57;14.65;;;13.95;;
10353;SDS011;5223;50.924;13.338;2022-07-21T15:04:41;14.45;;;13.85;;
10353;SDS011;5223;50.924;13.338;2022-07-21T15:07:09;14.98;;;14.27;;
10353;SDS011;5223;50.924;13.338;2022-07-21T15:09:45;14.60;;;14.00;;
10353;SDS011;5223;50.924;13.338;2022-07-21T15:12:29;14.40;;;13.80;;
10353;SDS011;5223;50.924;13.338;2022-07-21T15:15:12;14.30;;;13.70;;
10353;SDS011;5223;50.924;13.338;2022-07-21T15:17:47;13.70;;;13.10;;
10353;SDS011;5223;50.924;13.338;2022-07-21T15:20:31;14.02;;;13.40;;
10353;SDS011;5223;50.924;13.338;2022-07-21T15:23:13;16.52;;;15.40;;
10353;SDS011;5223;50.924;13.338;2022-07-21T15:25:52;13.07;;;12.57;;
10353;SDS011;5223;50.924;13.338;2022-07-21T15:28:32;13.68;;;13.07;;
10353;SDS011;5223;50.924;13.338;2022-07-21T15:31:16;13.52;;;12.93;;
10353;SDS011;5223;50.924;13.338;2022-07-21T15:33:52;15.25;;;14.25;;
10353;SDS011;5223;50.924;13.338;2022-07-21T15:36:44;12.45;;;11.85;;
10353;SDS011;5223;50.924;13.338;2022-07-21T15:39:26;10.52;;;10.13;;
10353;SDS011;5223;50.924;13.338;2022-07-21T15:41:58;10.52;;;10.13;;
10353;SDS011;5223;50.924;13.338;2022-07-21T15:44:34;10.20;;;9.80;;
10353;SDS011;5223;50.924;13.338;2022-07-21T15:47:09;9.35;;;8.95;;
10353;SDS011;5223;50.924;13.338;2022-07-21T15:49:44;9.82;;;9.32;;
10353;SDS011;5223;50.924;13.338;2022-07-21T15:52:31;7.55;;;7.25;;
10353;SDS011;5223;50.924;13.338;2022-07-21T15:55:06;6.88;;;6.68;;
10353;SDS011;5223;50.924;13.338;2022-07-21T15:57:43;9.32;;;8.82;;